Time;durP1;ratioP1;P1;durP2;ratioP2;P2;SDS_P1;SDS_P2;PMS_P1;PMS_P2;Temp;Humidity;BMP_temperature;BMP_pressure;BME280_temperature;BME280_humidity;BME280_pressure;Samples;Min_cycle;Max_cycle;Signal;HPM_P1;HPM_P2
2022/09/18 00:00:03;;;;;;;;;3.00;3.00;;;;;14.20;48.91;101413.16;4824428;29;46355;-78
2022/09/18 00:02:30;;;;;;;;;5.00;4.50;;;;;14.19;49.21;101414.13;4824090;29;47011;-77
2022/09/18 00:04:56;;;;;;;;;4.25;3.25;;;;;14.16;49.09;101414.34;4823938;29;45792;-76
2022/09/18 00:07:21;;;;;;;;;3.00;3.00;;;;;14.14;49.00;101406.53;4824666;29;45678;-76
2022/09/18 00:09:47;;;;;;;;;4.00;3.50;;;;;14.12;49.03;101411.09;4824229;29;46451;-77
2022/09/18 00:12:12;;;;;;;;;3.00;3.00;;;;;14.08;48.99;101403.53;4824434;29;46316;-76
2022/09/18 00:14:37;;;;;;;;;3.25;3.00;;;;;14.07;49.10;101404.47;4824417;29;45487;-75
2022/09/18 00:17:03;;;;;;;;;3.25;3.25;;;;;14.05;48.88;101403.72;4823068;29;45858;-75
2022/09/18 00:19:28;;;;;;;;;5.00;4.00;;;;;14.01;48.78;101403.13;4822541;29;47534;-77
2022/09/18 00:25:42;;;;;;;;;5.00;4.00;;;;;13.97;49.37;101400.84;4822807;29;45936;-76
2022/09/18 00:28:08;;;;;;;;;4.50;4.00;;;;;13.94;49.17;101401.88;4824133;29;45658;-76
2022/09/18 00:30:33;;;;;;;;;5.25;4.50;;;;;13.94;49.58;101401.88;4823559;29;47492;-77
2022/09/18 00:32:58;;;;;;;;;5.50;4.50;;;;;13.92;49.83;101403.81;4823887;29;45983;-76
2022/09/18 00:35:24;;;;;;;;;5.25;3.50;;;;;13.92;49.83;101397.69;4823958;29;45607;-76
2022/09/18 00:37:49;;;;;;;;;8.25;5.50;;;;;13.87;49.84;101395.41;4823877;29;45601;-75
2022/09/18 00:40:15;;;;;;;;;5.00;3.25;;;;;13.88;49.71;101400.53;4823510;29;45580;-76
2022/09/18 00:42:41;;;;;;;;;3.00;3.00;;;;;13.85;50.08;101394.66;4823831;29;46215;-75
2022/09/18 00:45:09;;;;;;;;;5.00;5.00;;;;;13.76;49.95;101405.84;4824343;29;45789;-74
2022/09/18 00:47:40;;;;;;;;;3.00;3.00;;;;;13.70;50.04;101395.75;4808575;29;45679;-76
2022/09/18 00:50:11;;;;;;;;;3.75;3.25;;;;;13.64;50.28;101404.09;4824696;29;46475;-73
2022/09/18 00:52:56;;;;;;;;;3.00;3.00;;;;;13.55;50.48;101402.13;4822326;29;48247;-73
2022/09/18 00:55:27;;;;;;;;;1.75;1.25;;;;;13.48;50.84;101406.13;4823740;29;45567;-75
2022/09/18 00:57:55;;;;;;;;;1.25;0.00;;;;;13.32;50.49;101387.94;4823535;29;45644;-73
2022/09/18 01:00:21;;;;;;;;;2.25;2.00;;;;;13.41;51.00;101408.34;4823158;29;46645;-74
2022/09/18 01:02:47;;;;;;;;;3.00;3.00;;;;;13.38;51.07;101404.16;4823577;29;46061;-72
2022/09/18 01:05:41;;;;;;;;;2.25;2.00;;;;;13.31;51.31;101410.78;4823258;29;45634;-73
2022/09/18 01:08:12;;;;;;;;;2.75;2.50;;;;;13.24;51.21;101413.94;4823090;29;45803;-73
2022/09/18 01:10:56;;;;;;;;;4.50;3.75;;;;;13.16;51.29;101409.22;4823289;29;46669;-72
2022/09/18 01:13:39;;;;;;;;;3.25;3.00;;;;;13.11;51.86;101408.66;4823471;29;46078;-73
2022/09/18 01:16:25;;;;;;;;;4.75;4.00;;;;;13.00;51.53;101398.88;4821939;29;45923;-74
2022/09/18 01:19:03;;;;;;;;;3.25;3.00;;;;;13.00;51.58;101400.66;4823479;29;45520;-75
2022/09/18 01:21:32;;;;;;;;;2.00;2.00;;;;;13.01;51.72;101405.78;4821048;29;47955;-74
2022/09/18 01:24:25;;;;;;;;;3.00;2.50;;;;;12.98;52.10;101403.38;4822185;29;46111;-74
2022/09/18 01:27:03;;;;;;;;;2.00;2.00;;;;;12.96;51.94;101399.16;4821912;29;45940;-75
2022/09/18 01:29:58;;;;;;;;;2.00;2.00;;;;;12.94;52.30;101396.66;4822510;29;45972;-74
2022/09/18 01:32:54;;;;;;;;;2.75;2.25;;;;;12.89;52.60;101384.78;4747649;29;45930;-75
2022/09/18 01:35:22;;;;;;;;;3.75;3.00;;;;;12.93;52.50;101396.75;4747394;29;45996;-76
2022/09/18 01:37:50;;;;;;;;;3.00;3.00;;;;;12.92;52.38;101400.31;4747368;29;46262;-75
2022/09/18 01:40:23;;;;;;;;;3.00;3.00;;;;;12.90;52.64;101396.97;4747813;29;45758;-76
2022/09/18 01:42:54;;;;;;;;;2.25;2.00;;;;;12.84;52.46;101392.13;4747529;29;46698;-74
2022/09/18 01:45:29;;;;;;;;;2.00;2.00;;;;;12.75;52.60;101385.69;4747727;29;46191;-75
2022/09/18 01:48:03;;;;;;;;;3.00;2.00;;;;;12.83;52.52;101406.22;4747429;29;45816;-75
2022/09/18 01:50:33;;;;;;;;;4.00;2.00;;;;;12.82;52.47;101401.91;4747666;29;45707;-74
2022/09/18 01:53:26;;;;;;;;;2.75;2.25;;;;;12.80;52.83;101404.63;4747314;29;46598;-75
2022/09/18 01:55:59;;;;;;;;;3.00;2.00;;;;;12.73;52.84;101390.22;4747007;29;46373;-77
2022/09/18 01:58:27;;;;;;;;;3.00;2.75;;;;;12.77;52.71;101396.97;4747072;29;45961;-74
2022/09/18 02:00:58;;;;;;;;;3.00;2.25;;;;;12.77;52.76;101393.47;4747452;29;45799;-76
2022/09/18 02:03:33;;;;;;;;;2.50;2.00;;;;;12.73;52.90;101392.00;4747546;29;45843;-76
2022/09/18 02:09:20;;;;;;;;;3.00;3.00;;;;;12.72;53.11;101385.06;4781432;29;45957;-76
2022/09/18 02:11:51;;;;;;;;;3.00;2.00;;;;;12.56;53.23;101359.81;4822205;29;45874;-73
2022/09/18 02:14:26;;;;;;;;;3.00;3.00;;;;;12.69;52.98;101387.88;4822036;29;45741;-76
2022/09/18 02:16:58;;;;;;;;;3.00;2.00;;;;;12.67;53.31;101392.41;4821394;29;46077;-75
2022/09/18 02:19:27;;;;;;;;;1.50;1.50;;;;;12.63;53.10;101392.59;4821730;29;45622;-77
2022/09/18 02:25:17;;;;;;;;;2.75;2.00;;;;;12.54;53.37;101377.47;4821457;29;46173;-72
2022/09/18 02:27:43;;;;;;;;;2.00;2.00;;;;;12.57;53.59;101384.31;4821375;29;46067;-73
2022/09/18 02:30:10;;;;;;;;;2.25;2.00;;;;;12.53;53.57;101382.81;4821634;29;45518;-73
2022/09/18 02:32:37;;;;;;;;;3.00;2.00;;;;;12.55;53.58;101383.56;4821205;29;45544;-74
2022/09/18 02:35:05;;;;;;;;;3.00;3.00;;;;;12.56;53.66;101380.00;4821524;29;46412;-73
2022/09/18 02:41:17;;;;;;;;;3.00;3.00;;;;;12.52;53.70;101378.53;4824363;29;45611;-74
2022/09/18 02:43:56;;;;;;;;;3.00;3.00;;;;;12.51;53.90;101382.09;4824560;29;46111;-74
2022/09/18 02:46:37;;;;;;;;;3.00;3.00;;;;;12.48;53.99;101383.13;4824504;29;46768;-74
2022/09/18 02:49:19;;;;;;;;;2.00;2.00;;;;;12.44;54.32;101371.16;4824288;29;46483;-77
2022/09/18 02:51:57;;;;;;;;;3.00;3.00;;;;;12.43;54.25;101372.06;4824268;29;45812;-75
2022/09/18 02:54:56;;;;;;;;;2.75;2.50;;;;;12.42;54.28;101366.91;4824709;29;45876;-73
2022/09/18 02:57:39;;;;;;;;;2.00;2.00;;;;;12.41;54.43;101370.50;4824041;29;47575;-74
2022/09/18 03:00:10;;;;;;;;;0.75;0.00;;;;;12.34;54.36;101353.47;4825231;29;46024;-77
2022/09/18 03:02:37;;;;;;;;;3.75;3.00;;;;;12.35;54.42;101361.25;4824499;29;45942;-75
2022/09/18 03:05:02;;;;;;;;;3.00;2.00;;;;;12.39;54.75;101360.09;4825617;29;45764;-71
2022/09/18 03:07:27;;;;;;;;;2.00;2.00;;;;;12.40;54.40;101353.91;4824481;29;47075;-73
2022/09/18 03:09:53;;;;;;;;;3.00;2.00;;;;;12.39;54.69;101356.63;4824421;29;46448;-75
2022/09/18 03:12:18;;;;;;;;;2.00;2.00;;;;;12.36;54.64;101362.09;4825308;29;45738;-75
2022/09/18 03:14:43;;;;;;;;;2.00;2.00;;;;;12.35;54.70;101361.25;4824976;29;45750;-74
2022/09/18 03:17:09;;;;;;;;;4.00;3.00;;;;;12.28;54.83;101340.72;4823810;29;46311;-75
2022/09/18 03:19:35;;;;;;;;;2.00;2.00;;;;;12.32;54.85;101360.59;4823797;29;46942;-74
2022/09/18 03:22:00;;;;;;;;;2.00;2.00;;;;;12.26;54.91;101345.22;4824145;29;45705;-75
2022/09/18 03:24:26;;;;;;;;;2.25;2.25;;;;;12.28;54.85;101348.59;4824136;29;45705;-76
2022/09/18 03:26:52;;;;;;;;;3.00;2.00;;;;;12.19;55.12;101334.31;4824456;29;45766;-75
2022/09/18 03:29:17;;;;;;;;;2.00;1.50;;;;;12.25;55.16;101349.66;4823756;29;46085;-75
2022/09/18 03:31:43;;;;;;;;;4.00;3.00;;;;;12.19;55.17;101337.78;4823012;29;45629;-76
2022/09/18 03:34:08;;;;;;;;;2.00;2.00;;;;;12.22;55.29;101346.38;4823958;29;45816;-77
2022/09/18 03:36:34;;;;;;;;;2.00;2.00;;;;;12.18;55.55;101343.97;4823406;29;47648;-74
2022/09/18 03:42:21;;;;;;;;;3.50;3.00;;;;;12.08;55.73;101335.00;4823731;29;45641;-74
2022/09/18 03:44:46;;;;;;;;;3.00;3.00;;;;;12.10;55.83;101343.63;4823900;29;45855;-75
2022/09/18 03:47:11;;;;;;;;;3.75;3.50;;;;;12.09;55.96;101346.38;4822266;29;47304;-74
2022/09/18 03:49:37;;;;;;;;;3.00;3.00;;;;;12.08;55.84;101350.78;4823287;29;47086;-77
2022/09/18 03:52:02;;;;;;;;;1.75;1.00;;;;;12.06;55.97;101343.94;4822344;29;45702;-75
2022/09/18 03:54:27;;;;;;;;;4.00;3.75;;;;;12.03;56.05;101342.34;4823632;29;45690;-76
2022/09/18 03:56:53;;;;;;;;;2.00;1.75;;;;;12.02;56.29;101332.78;4823200;29;47477;-75
2022/09/18 03:59:19;;;;;;;;;2.00;1.75;;;;;12.04;55.96;101332.66;4806644;29;47485;-76
2022/09/18 04:01:44;;;;;;;;;4.75;3.00;;;;;12.06;56.06;101338.66;4823684;29;45851;-74
2022/09/18 04:04:10;;;;;;;;;2.00;2.00;;;;;12.08;56.14;101332.38;4823738;29;45915;-75
2022/09/18 04:06:35;;;;;;;;;2.00;1.75;;;;;12.07;56.10;101329.84;4823081;29;47193;-72
2022/09/18 04:12:22;;;;;;;;;2.25;2.25;;;;;12.01;56.49;101332.88;4823369;29;45650;-74
2022/09/18 04:14:48;;;;;;;;;2.50;2.50;;;;;12.01;56.33;101340.75;4823698;29;45727;-75
2022/09/18 04:17:13;;;;;;;;;2.75;2.75;;;;;12.00;56.49;101339.91;4823342;29;46417;-76
2022/09/18 04:19:39;;;;;;;;;1.75;1.75;;;;;11.97;56.44;101337.50;4823830;29;45701;-74
2022/09/18 04:22:04;;;;;;;;;3.00;2.00;;;;;12.00;56.46;101347.78;4823636;29;45618;-76
2022/09/18 04:24:29;;;;;;;;;3.25;2.75;;;;;12.00;56.58;101337.28;4824559;29;45879;-76
2022/09/18 04:26:55;;;;;;;;;4.50;3.00;;;;;11.99;56.51;101343.47;4823652;29;46827;-77
2022/09/18 04:29:20;;;;;;;;;2.75;2.75;;;;;11.95;56.73;101344.63;4823118;29;46903;-77
2022/09/18 04:31:45;;;;;;;;;1.00;1.00;;;;;11.93;56.58;101343.06;4822906;29;45569;-77
2022/09/18 04:34:11;;;;;;;;;2.50;2.00;;;;;11.93;56.63;101341.25;4823631;29;45700;-76
2022/09/18 04:36:36;;;;;;;;;3.25;1.50;;;;;11.91;57.10;101340.53;4822968;29;45545;-77
2022/09/18 04:42:23;;;;;;;;;2.75;2.25;;;;;11.86;56.98;101329.47;4823097;29;45863;-76
2022/09/18 04:44:49;;;;;;;;;2.50;2.50;;;;;11.86;57.10;101332.09;4823286;29;45564;-75
2022/09/18 04:47:14;;;;;;;;;2.00;2.00;;;;;11.85;57.03;101338.28;4822800;29;45756;-75
2022/09/18 04:49:39;;;;;;;;;3.00;2.25;;;;;11.81;57.22;101339.44;4823174;29;45669;-76
2022/09/18 04:52:05;;;;;;;;;5.25;2.00;;;;;11.78;57.06;101343.09;4822957;29;45698;-74
2022/09/18 04:57:52;;;;;;;;;2.00;2.00;;;;;11.74;57.23;101343.38;4822279;29;45693;-75
2022/09/18 05:00:17;;;;;;;;;3.25;3.00;;;;;11.76;57.58;101352.88;4822882;29;46529;-75
2022/09/18 05:02:43;;;;;;;;;1.50;1.00;;;;;11.75;57.59;101355.56;4822036;29;45906;-74
2022/09/18 05:05:08;;;;;;;;;3.25;3.00;;;;;11.73;57.57;101349.56;4822751;29;45882;-74
2022/09/18 05:07:34;;;;;;;;;2.00;2.00;;;;;11.67;57.66;101348.16;4822051;29;46225;-76
2022/09/18 05:10:00;;;;;;;;;2.25;2.25;;;;;11.70;57.99;101355.00;4822701;29;45818;-76
2022/09/18 05:12:26;;;;;;;;;3.00;2.00;;;;;11.61;57.98;101348.53;4823052;29;45488;-77
2022/09/18 05:14:51;;;;;;;;;6.00;2.00;;;;;11.66;58.02;101359.59;4823462;29;45734;-76
2022/09/18 05:17:16;;;;;;;;;3.50;2.50;;;;;11.66;58.13;101361.38;4823212;29;47190;-74
2022/09/18 05:19:42;;;;;;;;;3.25;2.75;;;;;11.66;58.01;101359.59;4821735;29;47446;-76
2022/09/18 05:22:07;;;;;;;;;3.00;3.00;;;;;11.65;58.01;101357.91;4822446;29;45602;-75
2022/09/18 05:28:34;;;;;;;;;3.00;3.00;;;;;11.54;58.19;101339.38;4821531;29;45638;-73
2022/09/18 05:31:00;;;;;;;;;2.50;2.00;;;;;11.70;58.30;101357.63;4822007;29;46292;-74
2022/09/18 05:33:25;;;;;;;;;3.00;3.00;;;;;11.69;58.00;101356.78;4822548;29;45660;-74
2022/09/18 05:35:56;;;;;;;;;2.00;2.00;;;;;11.69;58.31;101362.03;4822459;29;45555;-75
2022/09/18 05:38:22;;;;;;;;;4.50;3.00;;;;;11.65;58.38;101349.19;4822034;29;45677;-72
2022/09/18 05:40:48;;;;;;;;;3.75;3.00;;;;;11.63;58.39;101343.19;4822208;29;46362;-76
2022/09/18 05:43:13;;;;;;;;;3.00;3.00;;;;;11.67;58.38;101358.66;4822247;29;45893;-75
2022/09/18 05:45:39;;;;;;;;;2.00;2.00;;;;;11.64;58.61;101361.47;4822036;29;45670;-76
2022/09/18 05:48:05;;;;;;;;;2.25;2.25;;;;;11.58;58.47;101358.41;4822001;29;46747;-76
2022/09/18 05:50:32;;;;;;;;;3.00;3.00;;;;;11.60;58.59;101369.66;4822294;29;46048;-74
2022/09/18 05:53:10;;;;;;;;;4.00;3.00;;;;;11.60;58.51;101353.91;4821955;29;45911;-74
2022/09/18 05:55:35;;;;;;;;;3.00;3.00;;;;;11.59;58.69;101360.94;4821822;29;45650;-74
2022/09/18 05:58:02;;;;;;;;;3.00;2.75;;;;;11.61;58.76;101361.66;4821860;29;46357;-74
2022/09/18 06:00:30;;;;;;;;;1.25;1.25;;;;;11.58;58.75;101355.78;4822588;29;46561;-75
2022/09/18 06:02:59;;;;;;;;;3.00;2.00;;;;;11.58;58.79;101361.88;4822314;29;45854;-72
2022/09/18 06:05:25;;;;;;;;;5.25;5.00;;;;;11.56;59.11;101360.25;4822555;29;45650;-75
2022/09/18 06:07:51;;;;;;;;;1.00;0.00;;;;;11.41;58.88;101346.34;4823361;29;45823;-76
2022/09/18 06:13:38;;;;;;;;;1.00;1.00;;;;;11.46;59.32;101367.03;4822756;29;45606;-75
2022/09/18 06:16:04;;;;;;;;;3.00;3.00;;;;;11.32;59.38;101347.75;4825978;29;45862;-74
2022/09/18 06:18:29;;;;;;;;;2.50;2.00;;;;;11.43;59.51;101370.69;4825191;29;46207;-76
2022/09/18 06:20:57;;;;;;;;;2.25;2.25;;;;;11.49;59.53;101372.09;4825915;29;47247;-75
2022/09/18 06:23:24;;;;;;;;;2.00;2.00;;;;;11.51;59.49;101378.94;4825683;29;45623;-76
2022/09/18 06:26:03;;;;;;;;;3.25;3.00;;;;;11.53;59.56;101382.31;4825964;29;45786;-76
2022/09/18 06:28:31;;;;;;;;;2.00;2.00;;;;;11.57;59.38;101385.56;4825483;29;46705;-75
2022/09/18 06:30:57;;;;;;;;;3.00;2.00;;;;;11.55;59.66;101374.34;4825641;29;46019;-75
2022/09/18 06:33:23;;;;;;;;;3.00;2.00;;;;;11.58;59.46;101371.50;4825858;29;45680;-73
2022/09/18 06:35:48;;;;;;;;;4.00;2.00;;;;;11.61;59.62;101380.03;4825939;29;45516;-76
2022/09/18 06:38:14;;;;;;;;;3.00;2.00;;;;;11.61;59.40;101377.41;4826224;29;47483;-74
2022/09/18 06:44:01;;;;;;;;;2.50;2.50;;;;;11.70;59.60;101387.34;4825746;29;45818;-74
2022/09/18 06:46:27;;;;;;;;;2.25;2.00;;;;;11.69;59.38;101376.94;4826774;29;45638;-76
2022/09/18 06:48:52;;;;;;;;;3.00;2.00;;;;;11.68;59.56;101370.00;4825543;29;47208;-75
2022/09/18 06:51:18;;;;;;;;;3.00;3.00;;;;;11.72;59.67;101374.09;4809034;29;45715;-74
2022/09/18 06:53:44;;;;;;;;;2.00;1.25;;;;;11.71;59.64;101373.25;4825363;29;45568;-77
2022/09/18 06:56:09;;;;;;;;;2.00;2.00;;;;;11.70;59.72;101361.09;4825524;29;45591;-75
2022/09/18 06:58:35;;;;;;;;;3.50;2.00;;;;;11.82;59.68;101377.88;4825054;29;47130;-75
2022/09/18 07:01:01;;;;;;;;;2.75;2.00;;;;;11.86;59.39;101373.28;4825134;29;45579;-76
2022/09/18 07:03:26;;;;;;;;;6.00;2.75;;;;;11.90;59.51;101372.13;4825083;29;45868;-74
2022/09/18 07:05:52;;;;;;;;;3.00;2.25;;;;;11.93;59.61;101369.31;4824995;29;45842;-76
2022/09/18 07:08:17;;;;;;;;;2.00;2.00;;;;;11.93;59.57;101364.06;4825095;29;45487;-75
2022/09/18 07:14:06;;;;;;;;;2.75;2.75;;;;;12.04;59.54;101365.03;4824992;29;45712;-75
2022/09/18 07:16:32;;;;;;;;;3.00;3.00;;;;;12.07;59.59;101374.50;4825228;29;45839;-73
2022/09/18 07:18:57;;;;;;;;;2.75;2.75;;;;;12.12;59.32;101370.63;4824617;29;47875;-74
2022/09/18 07:21:22;;;;;;;;;1.75;1.75;;;;;12.13;59.67;101368.84;4825126;29;45650;-77
2022/09/18 07:23:48;;;;;;;;;7.00;2.75;;;;;12.24;59.42;101381.28;4824764;29;45694;-74
2022/09/18 07:29:35;;;;;;;;;6.00;3.25;;;;;12.32;59.42;101376.34;4822633;29;45709;-73
2022/09/18 07:32:01;;;;;;;;;2.75;2.75;;;;;12.30;59.10;101373.00;4824561;29;46238;-75
2022/09/18 07:34:26;;;;;;;;;2.00;2.00;;;;;12.35;59.39;101381.44;4824877;29;45474;-74
2022/09/18 07:36:51;;;;;;;;;3.00;3.00;;;;;12.42;59.25;101386.16;4824870;29;45713;-75
2022/09/18 07:39:16;;;;;;;;;2.25;2.00;;;;;12.44;59.12;101379.03;4823903;29;47472;-76
2022/09/18 07:41:44;;;;;;;;;2.00;2.00;;;;;12.53;59.17;101388.91;4824908;29;45737;-72
2022/09/18 07:44:10;;;;;;;;;3.00;3.00;;;;;12.54;58.97;101380.09;4824447;29;45580;-74
2022/09/18 07:46:35;;;;;;;;;4.50;3.25;;;;;12.59;59.38;101379.78;4824746;29;45536;-75
2022/09/18 07:49:04;;;;;;;;;3.00;2.75;;;;;12.63;59.35;101383.06;4824365;29;46175;-74
2022/09/18 07:51:29;;;;;;;;;3.75;2.75;;;;;12.68;58.94;101383.59;4824307;29;46126;-73
2022/09/18 07:53:54;;;;;;;;;3.00;3.00;;;;;12.73;58.75;101376.25;4823633;29;45550;-74
2022/09/18 07:59:41;;;;;;;;;2.25;2.25;;;;;12.95;58.87;101387.81;4823952;29;45895;-76
2022/09/18 08:02:07;;;;;;;;;4.50;3.00;;;;;13.01;58.89;101389.16;4824266;29;46086;-77
2022/09/18 08:04:32;;;;;;;;;4.75;4.00;;;;;13.08;58.60;101386.97;4824461;29;45602;-76
2022/09/18 08:07:02;;;;;;;;;1.25;1.25;;;;;13.13;58.47;101390.16;4824244;29;45645;-77
2022/09/18 08:09:28;;;;;;;;;2.00;2.00;;;;;13.17;58.52;101386.38;4824130;29;46427;-77
2022/09/18 08:15:15;;;;;;;;;2.50;2.50;;;;;13.28;58.06;101395.19;4823900;29;45673;-74
2022/09/18 08:17:44;;;;;;;;;2.25;2.25;;;;;13.35;58.47;101393.81;4823881;29;45790;-76
2022/09/18 08:20:10;;;;;;;;;2.00;2.00;;;;;13.43;58.27;101395.94;4823337;29;45627;-75
2022/09/18 08:22:39;;;;;;;;;3.50;3.00;;;;;13.52;58.24;101392.63;4824108;29;45896;-74
2022/09/18 08:25:06;;;;;;;;;2.75;2.00;;;;;13.60;57.80;101397.38;4806729;29;45845;-75
2022/09/18 08:27:36;;;;;;;;;2.00;2.00;;;;;13.63;57.68;101391.88;4823955;29;45460;-76
2022/09/18 08:30:02;;;;;;;;;2.75;2.75;;;;;13.70;57.95;101393.13;4823865;29;46307;-75
2022/09/18 08:32:27;;;;;;;;;3.00;2.50;;;;;13.82;57.65;101394.84;4823419;29;46265;-76
2022/09/18 08:34:52;;;;;;;;;4.00;3.25;;;;;13.85;57.95;101384.13;4823724;29;46057;-76
2022/09/18 08:37:18;;;;;;;;;3.25;3.00;;;;;13.95;57.30;101384.28;4823342;29;45591;-73
2022/09/18 08:39:43;;;;;;;;;11.25;5.25;;;;;13.79;57.30;101347.69;4823887;29;46490;-82
2022/09/18 08:45:45;;;;;;;;;3.75;3.00;;;;;14.27;56.94;101395.94;4823674;29;45550;-78
2022/09/18 08:48:16;;;;;;;;;1.25;1.25;;;;;14.29;56.82;101386.97;4823216;29;45725;-79
2022/09/18 08:50:45;;;;;;;;;2.00;1.50;;;;;14.37;56.57;101389.06;4823723;29;45743;-76
2022/09/18 08:53:22;;;;;;;;;2.25;2.00;;;;;14.48;56.19;101386.47;4823421;29;46333;-76
2022/09/18 08:55:50;;;;;;;;;2.00;2.00;;;;;14.59;56.14;101398.84;4822951;29;45577;-75
2022/09/18 08:58:21;;;;;;;;;1.25;1.25;;;;;14.64;56.10;101391.44;4823500;29;45628;-75
2022/09/18 09:00:55;;;;;;;;;3.50;1.75;;;;;14.68;55.58;101380.53;4823206;29;47449;-76
2022/09/18 09:03:23;;;;;;;;;2.00;2.00;;;;;14.82;55.84;101399.75;4823065;29;47216;-76
2022/09/18 09:06:11;;;;;;;;;3.00;3.00;;;;;14.90;55.26;101395.56;4823102;29;45527;-77
2022/09/18 09:08:57;;;;;;;;;1.75;1.75;;;;;14.99;55.12;101394.88;4823396;29;45621;-76
2022/09/18 09:11:40;;;;;;;;;3.00;2.00;;;;;15.06;55.27;101387.31;4822760;29;46471;-78
2022/09/18 09:14:32;;;;;;;;;2.50;2.00;;;;;15.13;55.07;101385.88;4821645;29;47067;-77
2022/09/18 09:17:26;;;;;;;;;3.00;2.00;;;;;15.19;54.99;101385.41;4822688;29;45776;-77
2022/09/18 09:20:01;;;;;;;;;2.00;1.50;;;;;15.28;54.68;101384.66;4748500;29;45646;-77
2022/09/18 09:22:48;;;;;;;;;2.25;2.25;;;;;15.36;54.41;101386.72;4748328;29;45688;-76
2022/09/18 09:25:21;;;;;;;;;1.50;1.50;;;;;15.41;54.51;101388.03;4748243;29;46563;-76
2022/09/18 09:28:31;;;;;;;;;2.50;2.00;;;;;15.46;54.07;101380.59;4746114;29;45837;-72
2022/09/18 09:31:00;;;;;;;;;1.00;1.00;;;;;15.56;53.52;101378.09;4745509;29;45708;-71
2022/09/18 09:33:33;;;;;;;;;1.00;1.00;;;;;15.64;53.39;101375.69;4748769;29;47828;-73
2022/09/18 09:36:22;;;;;;;;;0.75;0.50;;;;;15.71;52.26;101376.06;4748649;29;45931;-73
2022/09/18 09:38:59;;;;;;;;;1.50;1.00;;;;;15.77;51.99;101383.47;4748052;29;45781;-71
2022/09/18 09:45:02;;;;;;;;;2.00;2.00;;;;;15.90;50.73;101387.66;4748167;29;46178;-74
2022/09/18 09:47:43;;;;;;;;;1.25;1.00;;;;;15.99;51.03;101382.56;4748174;29;47438;-75
2022/09/18 09:50:31;;;;;;;;;0.00;0.00;;;;;16.06;50.52;101383.75;4751579;29;45600;-79
2022/09/18 09:53:01;;;;;;;;;2.00;1.00;;;;;16.14;49.58;101378.69;4699730;30;45839;-73
2022/09/18 09:55:34;;;;;;;;;1.00;0.00;;;;;16.19;49.03;101366.78;4699388;30;46794;-72
2022/09/18 10:01:26;;;;;;;;;1.00;0.50;;;;;16.34;48.41;101375.22;4753407;29;45762;-74
2022/09/18 10:03:55;;;;;;;;;0.75;0.00;;;;;16.41;48.68;101372.94;4766279;29;45594;-73
2022/09/18 10:06:32;;;;;;;;;1.00;1.00;;;;;16.46;48.41;101366.28;4750943;29;47249;-74
2022/09/18 10:09:01;;;;;;;;;1.00;1.00;;;;;16.51;48.45;101360.59;4751455;29;46573;-73
2022/09/18 10:11:26;;;;;;;;;1.00;1.00;;;;;16.58;48.21;101367.88;4751742;29;45696;-76
2022/09/18 10:14:04;;;;;;;;;1.00;1.00;;;;;16.63;48.01;101367.53;4751394;29;45815;-74
2022/09/18 10:16:45;;;;;;;;;1.00;1.00;;;;;16.63;47.82;101356.94;4751259;29;46422;-74
2022/09/18 10:19:15;;;;;;;;;1.00;1.00;;;;;16.65;48.07;101352.38;4750493;29;47376;-74
2022/09/18 10:21:41;;;;;;;;;2.75;2.25;;;;;16.79;47.31;101379.31;4736020;29;46204;-75
2022/09/18 10:24:47;;;;;;;;;1.00;1.00;;;;;16.85;47.16;101372.69;4750703;29;45724;-75
2022/09/18 10:27:14;;;;;;;;;1.00;0.75;;;;;16.85;46.88;101353.31;4736796;29;47265;-75
2022/09/18 10:29:40;;;;;;;;;2.00;2.00;;;;;16.93;47.09;101366.75;4777872;29;45720;-75
2022/09/18 10:32:09;;;;;;;;;2.00;1.25;;;;;16.97;46.69;101347.81;4825535;29;45620;-76
2022/09/18 10:34:48;;;;;;;;;0.75;0.75;;;;;17.03;46.43;101346.44;4825404;29;45532;-73
2022/09/18 10:37:27;;;;;;;;;1.25;1.00;;;;;17.07;46.77;101353.97;4824946;29;46505;-73
2022/09/18 10:39:58;;;;;;;;;0.75;0.75;;;;;17.10;46.71;101348.44;4825121;29;46571;-75
2022/09/18 10:42:30;;;;;;;;;2.25;1.00;;;;;17.15;46.42;101348.88;4823512;29;45715;-75
2022/09/18 10:45:01;;;;;;;;;1.00;1.00;;;;;17.23;46.60;101348.19;4825095;29;45598;-74
2022/09/18 10:47:32;;;;;;;;;1.00;1.00;;;;;17.28;46.40;101345.13;4824908;29;47489;-74
2022/09/18 10:50:10;;;;;;;;;2.25;1.00;;;;;17.31;46.05;101339.59;4825329;29;46566;-74
2022/09/18 10:52:36;;;;;;;;;2.00;1.00;;;;;17.39;46.06;101345.03;4825061;29;45674;-74
2022/09/18 10:55:04;;;;;;;;;1.75;1.00;;;;;17.41;45.58;101341.28;4825154;29;45856;-71
2022/09/18 10:57:39;;;;;;;;;1.00;1.00;;;;;17.38;45.54;101327.50;4824637;29;46630;-72
2022/09/18 11:00:11;;;;;;;;;1.00;1.00;;;;;17.47;45.78;101335.47;4824444;29;47378;-74
2022/09/18 11:02:44;;;;;;;;;1.00;1.00;;;;;17.53;45.52;101336.72;4824940;29;45656;-72
2022/09/18 11:05:21;;;;;;;;;1.00;1.00;;;;;17.56;45.63;101347.88;4825332;29;45668;-74
2022/09/18 11:07:54;;;;;;;;;1.50;1.25;;;;;17.64;45.12;101346.41;4825161;29;45699;-70
2022/09/18 11:10:23;;;;;;;;;2.00;1.50;;;;;17.69;45.02;101341.53;4825339;29;46015;-71
2022/09/18 11:12:56;;;;;;;;;2.75;2.00;;;;;17.68;44.91;101321.31;4828066;29;45617;-83
2022/09/18 11:15:31;;;;;;;;;1.25;1.25;;;;;17.77;44.34;101350.47;4837289;29;45900;-79
2022/09/18 11:18:00;;;;;;;;;1.00;1.00;;;;;17.82;44.57;101339.44;4829650;29;46546;-78
2022/09/18 11:20:30;;;;;;;;;2.00;2.00;;;;;17.84;44.68;101337.50;4831045;29;46672;-80
2022/09/18 11:23:28;;;;;;;;;1.50;1.25;;;;;17.89;44.39;101364.44;4826508;29;45729;-78
2022/09/18 11:26:18;;;;;;;;;2.00;1.00;;;;;17.94;44.47;101338.34;4826710;29;45532;-78
2022/09/18 11:28:58;;;;;;;;;1.00;1.00;;;;;17.92;44.19;101333.19;4814180;29;45672;-76
2022/09/18 11:31:27;;;;;;;;;1.00;1.00;;;;;18.03;44.29;101342.81;4825892;29;45476;-77
2022/09/18 11:33:55;;;;;;;;;1.75;1.00;;;;;18.07;44.00;101327.47;4824696;29;45738;-79
2022/09/18 11:36:29;;;;;;;;;2.00;2.00;;;;;18.03;44.24;101329.56;4824014;29;45692;-80
2022/09/18 11:38:58;;;;;;;;;1.75;1.75;;;;;18.17;43.88;101352.19;4825720;29;47560;-79
2022/09/18 11:41:36;;;;;;;;;2.00;2.00;;;;;18.11;43.78;101335.00;4828510;29;47451;-79
2022/09/18 11:44:16;;;;;;;;;1.00;1.00;;;;;18.19;43.49;101329.81;4827652;29;45683;-79
2022/09/18 11:47:00;;;;;;;;;2.00;1.25;;;;;18.18;43.26;101330.00;4827051;29;45479;-79
2022/09/18 11:49:37;;;;;;;;;2.50;2.00;;;;;18.20;43.31;101341.28;4825446;29;45644;-78
2022/09/18 11:52:30;;;;;;;;;1.50;1.50;;;;;18.24;43.13;101322.31;4824292;29;47284;-84
2022/09/18 11:55:23;;;;;;;;;2.25;2.00;;;;;18.27;43.22;101324.66;4824422;29;45669;-85
2022/09/18 12:04:54;;;;;;;;;2.75;2.00;;;;;18.48;42.98;101313.88;4825012;29;45943;-86
2022/09/18 12:07:35;;;;;;;;;1.75;1.00;;;;;18.55;42.51;101317.69;4824940;29;45643;-85
2022/09/18 12:34:24;;;;;;;;;3.00;2.00;;;;;19.00;41.66;101291.25;4746299;29;45803;-72
2022/09/18 12:37:14;;;;;;;;;2.00;2.00;;;;;19.08;41.25;101278.06;4713314;30;45791;-74
2022/09/18 12:39:39;;;;;;;;;1.00;1.00;;;;;19.15;41.19;101292.47;4661364;30;47636;-73
2022/09/18 12:42:26;;;;;;;;;1.25;1.25;;;;;19.18;41.04;101278.03;4662294;30;46476;-74
2022/09/18 12:48:48;;;;;;;;;1.00;1.00;;;;;19.19;41.26;101277.03;4661812;30;45617;-83
2022/09/18 12:51:17;;;;;;;;;2.00;1.50;;;;;19.16;41.63;101280.00;4696064;30;45836;-80
2022/09/18 12:54:01;;;;;;;;;1.50;1.00;;;;;19.14;41.29;101260.72;4696752;30;45573;-77
2022/09/18 12:56:32;;;;;;;;;1.00;1.00;;;;;19.22;41.51;101268.75;4695903;30;45588;-76
2022/09/18 13:02:27;;;;;;;;;2.00;1.00;;;;;19.34;41.86;101258.78;4698930;30;45741;-79
2022/09/18 13:05:00;;;;;;;;;1.00;1.00;;;;;19.37;40.98;101261.16;4704579;30;45909;-81
2022/09/18 13:07:33;;;;;;;;;1.00;1.00;;;;;19.38;41.19;101262.81;4701349;30;45695;-81
2022/09/18 13:10:18;;;;;;;;;1.75;1.75;;;;;19.29;41.15;101235.31;4704309;30;45807;-83
2022/09/18 13:12:58;;;;;;;;;1.00;1.00;;;;;19.41;40.87;101257.19;4708702;29;46594;-87
2022/09/18 13:18:59;;;;;;;;;1.25;1.00;;;;;19.25;41.02;101220.66;4812775;29;45743;-85
2022/09/18 13:21:32;;;;;;;;;1.25;1.25;;;;;19.35;40.85;101233.88;4811274;29;45536;-82
2022/09/18 13:23:59;;;;;;;;;0.00;0.00;;;;;19.35;40.90;101240.03;4788969;29;46624;-79